sensor_id;sensor_type;location;lat;lon;timestamp;P1;durP1;ratioP1;P2;durP2;ratioP2
30048;SDS011;16879;50.852;15.602;2024-03-23T00:54:48;20.20;;;13.52;;
30048;SDS011;16879;50.852;15.602;2024-03-23T00:57:14;19.75;;;12.45;;
30048;SDS011;16879;50.852;15.602;2024-03-23T00:59:40;21.80;;;13.55;;
30048;SDS011;16879;50.852;15.602;2024-03-23T01:02:06;15.45;;;10.15;;
30048;SDS011;16879;50.852;15.602;2024-03-23T01:04:32;16.95;;;10.95;;
30048;SDS011;16879;50.852;15.602;2024-03-23T01:06:58;18.73;;;12.18;;
30048;SDS011;16879;50.852;15.602;2024-03-23T01:09:24;17.88;;;11.45;;
30048;SDS011;16879;50.852;15.602;2024-03-23T01:11:51;17.42;;;10.88;;
30048;SDS011;16879;50.852;15.602;2024-03-23T01:14:18;16.42;;;10.52;;
30048;SDS011;16879;50.852;15.602;2024-03-23T01:16:44;15.98;;;10.25;;
30048;SDS011;16879;50.852;15.602;2024-03-23T01:19:10;15.02;;;9.70;;
30048;SDS011;16879;50.852;15.602;2024-03-23T01:21:37;16.65;;;12.15;;
30048;SDS011;16879;50.852;15.602;2024-03-23T01:24:02;15.43;;;9.73;;
30048;SDS011;16879;50.852;15.602;2024-03-23T01:26:29;17.02;;;10.95;;
30048;SDS011;16879;50.852;15.602;2024-03-23T01:28:54;13.70;;;10.35;;
30048;SDS011;16879;50.852;15.602;2024-03-23T01:31:20;17.35;;;10.75;;
30048;SDS011;16879;50.852;15.602;2024-03-23T01:33:46;17.35;;;10.85;;
30048;SDS011;16879;50.852;15.602;2024-03-23T01:36:12;15.50;;;9.48;;
30048;SDS011;16879;50.852;15.602;2024-03-23T01:38:38;16.42;;;10.30;;
30048;SDS011;16879;50.852;15.602;2024-03-23T01:41:05;18.23;;;10.40;;
30048;SDS011;16879;50.852;15.602;2024-03-23T01:43:31;13.05;;;9.45;;
30048;SDS011;16879;50.852;15.602;2024-03-23T01:45:57;16.85;;;9.93;;
30048;SDS011;16879;50.852;15.602;2024-03-23T01:48:23;14.98;;;9.43;;
30048;SDS011;16879;50.852;15.602;2024-03-23T01:50:49;11.55;;;8.50;;
30048;SDS011;16879;50.852;15.602;2024-03-23T01:53:15;12.20;;;9.70;;
30048;SDS011;16879;50.852;15.602;2024-03-23T01:55:47;10.52;;;8.18;;
30048;SDS011;16879;50.852;15.602;2024-03-23T01:58:13;8.50;;;7.03;;
30048;SDS011;16879;50.852;15.602;2024-03-23T02:00:39;9.10;;;6.88;;
30048;SDS011;16879;50.852;15.602;2024-03-23T02:06:04;9.52;;;6.35;;
30048;SDS011;16879;50.852;15.602;2024-03-23T02:08:32;8.38;;;6.22;;
30048;SDS011;16879;50.852;15.602;2024-03-23T02:10:58;9.07;;;6.72;;
30048;SDS011;16879;50.852;15.602;2024-03-23T02:13:24;10.40;;;7.47;;
30048;SDS011;16879;50.852;15.602;2024-03-23T02:15:51;8.35;;;6.20;;
30048;SDS011;16879;50.852;15.602;2024-03-23T02:18:17;13.30;;;9.70;;
30048;SDS011;16879;50.852;15.602;2024-03-23T02:20:43;14.80;;;12.27;;
30048;SDS011;16879;50.852;15.602;2024-03-23T02:23:15;20.60;;;12.77;;
30048;SDS011;16879;50.852;15.602;2024-03-23T02:25:43;17.90;;;10.43;;
30048;SDS011;16879;50.852;15.602;2024-03-23T02:28:09;10.70;;;9.02;;
30048;SDS011;16879;50.852;15.602;2024-03-23T02:30:35;17.58;;;11.50;;
30048;SDS011;16879;50.852;15.602;2024-03-23T02:33:01;12.73;;;10.13;;
30048;SDS011;16879;50.852;15.602;2024-03-23T02:35:27;10.45;;;8.60;;
30048;SDS011;16879;50.852;15.602;2024-03-23T02:37:53;15.38;;;10.48;;
30048;SDS011;16879;50.852;15.602;2024-03-23T02:40:21;14.35;;;9.65;;
30048;SDS011;16879;50.852;15.602;2024-03-23T02:42:47;14.23;;;10.65;;
30048;SDS011;16879;50.852;15.602;2024-03-23T02:45:13;13.05;;;9.93;;
30048;SDS011;16879;50.852;15.602;2024-03-23T02:47:39;16.00;;;11.30;;
30048;SDS011;16879;50.852;15.602;2024-03-23T02:50:05;13.07;;;9.85;;
30048;SDS011;16879;50.852;15.602;2024-03-23T02:52:31;12.75;;;9.70;;
30048;SDS011;16879;50.852;15.602;2024-03-23T02:54:57;15.05;;;9.90;;
30048;SDS011;16879;50.852;15.602;2024-03-23T02:57:23;11.00;;;7.93;;
30048;SDS011;16879;50.852;15.602;2024-03-23T02:59:49;9.30;;;7.28;;
30048;SDS011;16879;50.852;15.602;2024-03-23T03:02:15;8.57;;;6.72;;
30048;SDS011;16879;50.852;15.602;2024-03-23T03:04:42;10.32;;;7.43;;
30048;SDS011;16879;50.852;15.602;2024-03-23T03:07:08;8.90;;;7.43;;
30048;SDS011;16879;50.852;15.602;2024-03-23T03:09:34;10.30;;;8.10;;
30048;SDS011;16879;50.852;15.602;2024-03-23T03:12:03;11.27;;;8.27;;
30048;SDS011;16879;50.852;15.602;2024-03-23T03:14:29;14.40;;;9.48;;
30048;SDS011;16879;50.852;15.602;2024-03-23T03:16:55;14.43;;;9.38;;
30048;SDS011;16879;50.852;15.602;2024-03-23T03:19:23;18.15;;;9.38;;
30048;SDS011;16879;50.852;15.602;2024-03-23T03:21:49;12.48;;;8.70;;
30048;SDS011;16879;50.852;15.602;2024-03-23T03:24:15;13.07;;;8.98;;
30048;SDS011;16879;50.852;15.602;2024-03-23T03:26:42;11.27;;;9.27;;
30048;SDS011;16879;50.852;15.602;2024-03-23T03:29:08;13.07;;;8.38;;
30048;SDS011;16879;50.852;15.602;2024-03-23T03:31:34;12.35;;;8.45;;
30048;SDS011;16879;50.852;15.602;2024-03-23T03:34:00;12.35;;;8.35;;
30048;SDS011;16879;50.852;15.602;2024-03-23T03:36:27;11.25;;;8.63;;
30048;SDS011;16879;50.852;15.602;2024-03-23T03:38:54;12.00;;;9.18;;
30048;SDS011;16879;50.852;15.602;2024-03-23T03:41:20;13.90;;;10.77;;
30048;SDS011;16879;50.852;15.602;2024-03-23T03:43:46;16.80;;;12.40;;
30048;SDS011;16879;50.852;15.602;2024-03-23T03:46:12;15.60;;;11.30;;
30048;SDS011;16879;50.852;15.602;2024-03-23T03:48:38;13.98;;;10.35;;
30048;SDS011;16879;50.852;15.602;2024-03-23T03:51:04;16.83;;;11.80;;
30048;SDS011;16879;50.852;15.602;2024-03-23T03:53:30;19.25;;;12.85;;
30048;SDS011;16879;50.852;15.602;2024-03-23T03:56:00;18.83;;;11.73;;
30048;SDS011;16879;50.852;15.602;2024-03-23T03:58:27;15.95;;;11.52;;
30048;SDS011;16879;50.852;15.602;2024-03-23T04:00:52;18.55;;;11.82;;
30048;SDS011;16879;50.852;15.602;2024-03-23T04:03:19;18.17;;;14.10;;
30048;SDS011;16879;50.852;15.602;2024-03-23T04:05:52;22.05;;;13.77;;
30048;SDS011;16879;50.852;15.602;2024-03-23T04:08:18;15.40;;;12.73;;
30048;SDS011;16879;50.852;15.602;2024-03-23T04:10:44;17.60;;;12.55;;
30048;SDS011;16879;50.852;15.602;2024-03-23T04:13:11;15.27;;;11.80;;
30048;SDS011;16879;50.852;15.602;2024-03-23T04:15:37;17.20;;;11.32;;
30048;SDS011;16879;50.852;15.602;2024-03-23T04:18:03;15.80;;;11.40;;
30048;SDS011;16879;50.852;15.602;2024-03-23T04:20:29;18.40;;;14.05;;
30048;SDS011;16879;50.852;15.602;2024-03-23T04:22:55;17.58;;;14.13;;
30048;SDS011;16879;50.852;15.602;2024-03-23T04:25:21;17.15;;;12.38;;
30048;SDS011;16879;50.852;15.602;2024-03-23T04:27:47;13.55;;;10.95;;
30048;SDS011;16879;50.852;15.602;2024-03-23T04:30:12;14.25;;;11.98;;
30048;SDS011;16879;50.852;15.602;2024-03-23T04:32:40;16.85;;;12.27;;
30048;SDS011;16879;50.852;15.602;2024-03-23T04:35:07;18.30;;;11.07;;
30048;SDS011;16879;50.852;15.602;2024-03-23T04:37:36;18.85;;;12.73;;
30048;SDS011;16879;50.852;15.602;2024-03-23T04:40:03;17.63;;;13.63;;
30048;SDS011;16879;50.852;15.602;2024-03-23T04:42:29;18.42;;;13.88;;
30048;SDS011;16879;50.852;15.602;2024-03-23T04:44:56;15.15;;;12.43;;
30048;SDS011;16879;50.852;15.602;2024-03-23T04:47:22;18.30;;;13.50;;
30048;SDS011;16879;50.852;15.602;2024-03-23T04:49:48;16.73;;;13.55;;
30048;SDS011;16879;50.852;15.602;2024-03-23T04:52:15;17.50;;;14.73;;
30048;SDS011;16879;50.852;15.602;2024-03-23T04:54:41;16.45;;;12.85;;
30048;SDS011;16879;50.852;15.602;2024-03-23T04:57:07;17.58;;;13.65;;
30048;SDS011;16879;50.852;15.602;2024-03-23T04:59:34;20.98;;;15.30;;
30048;SDS011;16879;50.852;15.602;2024-03-23T05:02:00;20.40;;;15.90;;
30048;SDS011;16879;50.852;15.602;2024-03-23T05:04:26;24.83;;;15.55;;
30048;SDS011;16879;50.852;15.602;2024-03-23T05:06:52;19.52;;;14.27;;
30048;SDS011;16879;50.852;15.602;2024-03-23T05:09:18;22.33;;;17.38;;
30048;SDS011;16879;50.852;15.602;2024-03-23T05:11:45;21.20;;;15.63;;
30048;SDS011;16879;50.852;15.602;2024-03-23T05:14:14;21.33;;;16.17;;
30048;SDS011;16879;50.852;15.602;2024-03-23T05:16:40;19.35;;;14.60;;
30048;SDS011;16879;50.852;15.602;2024-03-23T05:19:06;20.27;;;14.48;;
30048;SDS011;16879;50.852;15.602;2024-03-23T05:21:32;19.45;;;15.20;;
30048;SDS011;16879;50.852;15.602;2024-03-23T05:23:58;24.00;;;18.92;;
30048;SDS011;16879;50.852;15.602;2024-03-23T05:26:25;20.83;;;15.57;;
30048;SDS011;16879;50.852;15.602;2024-03-23T05:28:51;26.55;;;18.58;;
30048;SDS011;16879;50.852;15.602;2024-03-23T05:31:27;22.35;;;16.92;;
30048;SDS011;16879;50.852;15.602;2024-03-23T05:33:54;21.25;;;16.20;;
30048;SDS011;16879;50.852;15.602;2024-03-23T05:36:20;20.17;;;17.02;;
30048;SDS011;16879;50.852;15.602;2024-03-23T05:38:45;22.30;;;18.23;;
30048;SDS011;16879;50.852;15.602;2024-03-23T05:41:12;19.40;;;15.43;;
30048;SDS011;16879;50.852;15.602;2024-03-23T05:43:38;19.75;;;15.68;;
30048;SDS011;16879;50.852;15.602;2024-03-23T05:46:04;21.27;;;17.45;;
30048;SDS011;16879;50.852;15.602;2024-03-23T05:48:30;23.42;;;18.08;;
30048;SDS011;16879;50.852;15.602;2024-03-23T05:50:57;20.65;;;15.43;;
30048;SDS011;16879;50.852;15.602;2024-03-23T05:53:23;20.30;;;15.75;;
30048;SDS011;16879;50.852;15.602;2024-03-23T05:56:00;19.33;;;15.70;;
30048;SDS011;16879;50.852;15.602;2024-03-23T05:58:29;21.45;;;17.13;;
30048;SDS011;16879;50.852;15.602;2024-03-23T06:00:58;21.33;;;17.70;;
30048;SDS011;16879;50.852;15.602;2024-03-23T06:03:25;21.05;;;14.85;;
30048;SDS011;16879;50.852;15.602;2024-03-23T06:05:52;27.23;;;20.13;;
30048;SDS011;16879;50.852;15.602;2024-03-23T06:08:18;26.42;;;19.83;;
30048;SDS011;16879;50.852;15.602;2024-03-23T06:10:45;24.35;;;17.25;;
30048;SDS011;16879;50.852;15.602;2024-03-23T06:13:12;22.08;;;15.85;;
30048;SDS011;16879;50.852;15.602;2024-03-23T06:15:38;23.70;;;16.50;;
30048;SDS011;16879;50.852;15.602;2024-03-23T06:18:04;22.77;;;17.30;;
30048;SDS011;16879;50.852;15.602;2024-03-23T06:20:32;19.25;;;16.58;;
30048;SDS011;16879;50.852;15.602;2024-03-23T06:22:59;17.02;;;14.20;;
30048;SDS011;16879;50.852;15.602;2024-03-23T06:25:28;20.50;;;14.85;;
30048;SDS011;16879;50.852;15.602;2024-03-23T06:27:54;16.60;;;13.95;;
30048;SDS011;16879;50.852;15.602;2024-03-23T06:30:21;23.13;;;15.40;;
30048;SDS011;16879;50.852;15.602;2024-03-23T06:32:47;14.52;;;12.18;;
30048;SDS011;16879;50.852;15.602;2024-03-23T06:35:13;14.20;;;11.68;;
30048;SDS011;16879;50.852;15.602;2024-03-23T06:37:39;14.38;;;11.75;;
30048;SDS011;16879;50.852;15.602;2024-03-23T06:40:06;15.93;;;13.57;;
30048;SDS011;16879;50.852;15.602;2024-03-23T06:42:34;14.77;;;12.13;;
30048;SDS011;16879;50.852;15.602;2024-03-23T06:45:01;20.80;;;15.77;;
30048;SDS011;16879;50.852;15.602;2024-03-23T06:47:27;24.63;;;17.40;;
30048;SDS011;16879;50.852;15.602;2024-03-23T06:49:53;23.00;;;16.60;;
30048;SDS011;16879;50.852;15.602;2024-03-23T06:52:19;23.35;;;15.55;;
30048;SDS011;16879;50.852;15.602;2024-03-23T06:54:44;21.98;;;15.82;;
30048;SDS011;16879;50.852;15.602;2024-03-23T06:57:11;21.80;;;16.73;;
30048;SDS011;16879;50.852;15.602;2024-03-23T06:59:37;30.42;;;20.98;;
30048;SDS011;16879;50.852;15.602;2024-03-23T07:02:06;24.58;;;17.83;;
30048;SDS011;16879;50.852;15.602;2024-03-23T07:04:36;19.77;;;15.57;;
30048;SDS011;16879;50.852;15.602;2024-03-23T07:07:04;22.02;;;16.58;;
30048;SDS011;16879;50.852;15.602;2024-03-23T07:09:30;27.08;;;19.55;;
30048;SDS011;16879;50.852;15.602;2024-03-23T07:11:56;23.17;;;17.10;;
30048;SDS011;16879;50.852;15.602;2024-03-23T07:14:23;25.30;;;19.17;;
30048;SDS011;16879;50.852;15.602;2024-03-23T07:16:49;21.85;;;18.38;;
30048;SDS011;16879;50.852;15.602;2024-03-23T07:19:16;30.30;;;19.77;;
30048;SDS011;16879;50.852;15.602;2024-03-23T07:21:45;29.20;;;21.33;;
30048;SDS011;16879;50.852;15.602;2024-03-23T07:24:11;24.48;;;18.02;;
30048;SDS011;16879;50.852;15.602;2024-03-23T07:26:37;25.50;;;17.30;;
30048;SDS011;16879;50.852;15.602;2024-03-23T07:29:03;24.85;;;19.58;;
30048;SDS011;16879;50.852;15.602;2024-03-23T07:31:30;25.52;;;20.38;;
30048;SDS011;16879;50.852;15.602;2024-03-23T07:33:56;25.73;;;19.73;;
30048;SDS011;16879;50.852;15.602;2024-03-23T07:36:22;20.92;;;17.77;;
30048;SDS011;16879;50.852;15.602;2024-03-23T07:38:48;23.20;;;18.85;;
30048;SDS011;16879;50.852;15.602;2024-03-23T07:41:15;26.85;;;21.52;;
30048;SDS011;16879;50.852;15.602;2024-03-23T07:43:45;25.33;;;19.83;;
30048;SDS011;16879;50.852;15.602;2024-03-23T07:46:11;23.35;;;18.23;;
30048;SDS011;16879;50.852;15.602;2024-03-23T07:48:38;23.60;;;17.77;;
30048;SDS011;16879;50.852;15.602;2024-03-23T07:51:08;24.50;;;18.85;;
30048;SDS011;16879;50.852;15.602;2024-03-23T07:53:34;21.60;;;17.65;;
30048;SDS011;16879;50.852;15.602;2024-03-23T07:56:08;16.75;;;14.60;;
30048;SDS011;16879;50.852;15.602;2024-03-23T07:58:35;19.77;;;16.60;;
30048;SDS011;16879;50.852;15.602;2024-03-23T08:01:11;23.92;;;18.88;;
30048;SDS011;16879;50.852;15.602;2024-03-23T08:03:40;24.15;;;17.15;;
30048;SDS011;16879;50.852;15.602;2024-03-23T08:06:16;17.73;;;14.23;;
30048;SDS011;16879;50.852;15.602;2024-03-23T08:08:43;13.88;;;11.18;;
30048;SDS011;16879;50.852;15.602;2024-03-23T08:11:10;11.60;;;10.35;;
30048;SDS011;16879;50.852;15.602;2024-03-23T08:13:38;11.52;;;10.32;;
30048;SDS011;16879;50.852;15.602;2024-03-23T08:16:05;11.00;;;9.27;;
30048;SDS011;16879;50.852;15.602;2024-03-23T08:18:31;11.90;;;8.98;;
30048;SDS011;16879;50.852;15.602;2024-03-23T08:23:24;12.07;;;6.82;;
30048;SDS011;16879;50.852;15.602;2024-03-23T08:25:50;7.00;;;6.20;;
30048;SDS011;16879;50.852;15.602;2024-03-23T08:28:16;9.05;;;6.65;;
30048;SDS011;16879;50.852;15.602;2024-03-23T08:30:43;6.78;;;5.38;;
30048;SDS011;16879;50.852;15.602;2024-03-23T08:33:09;7.10;;;5.28;;
30048;SDS011;16879;50.852;15.602;2024-03-23T08:35:35;6.63;;;5.80;;
30048;SDS011;16879;50.852;15.602;2024-03-23T08:38:01;6.32;;;5.65;;
30048;SDS011;16879;50.852;15.602;2024-03-23T08:40:27;11.10;;;7.03;;
30048;SDS011;16879;50.852;15.602;2024-03-23T08:42:53;10.27;;;6.53;;
30048;SDS011;16879;50.852;15.602;2024-03-23T08:45:19;9.65;;;6.22;;
30048;SDS011;16879;50.852;15.602;2024-03-23T08:47:45;8.98;;;5.65;;
30048;SDS011;16879;50.852;15.602;2024-03-23T08:50:11;10.18;;;6.70;;
30048;SDS011;16879;50.852;15.602;2024-03-23T08:52:37;11.02;;;6.53;;
30048;SDS011;16879;50.852;15.602;2024-03-23T08:55:03;9.18;;;6.72;;
30048;SDS011;16879;50.852;15.602;2024-03-23T08:57:30;8.55;;;6.78;;
30048;SDS011;16879;50.852;15.602;2024-03-23T08:59:55;8.77;;;7.35;;
30048;SDS011;16879;50.852;15.602;2024-03-23T09:02:21;9.52;;;6.15;;
30048;SDS011;16879;50.852;15.602;2024-03-23T09:04:47;10.70;;;8.07;;
30048;SDS011;16879;50.852;15.602;2024-03-23T09:07:13;11.20;;;8.45;;
30048;SDS011;16879;50.852;15.602;2024-03-23T09:09:39;11.68;;;8.73;;
30048;SDS011;16879;50.852;15.602;2024-03-23T09:12:05;12.82;;;9.20;;
30048;SDS011;16879;50.852;15.602;2024-03-23T09:14:32;9.73;;;8.70;;
30048;SDS011;16879;50.852;15.602;2024-03-23T09:16:58;10.13;;;9.05;;
30048;SDS011;16879;50.852;15.602;2024-03-23T09:19:27;12.20;;;8.70;;
30048;SDS011;16879;50.852;15.602;2024-03-23T09:21:53;10.40;;;9.13;;
30048;SDS011;16879;50.852;15.602;2024-03-23T09:24:19;11.68;;;8.27;;
30048;SDS011;16879;50.852;15.602;2024-03-23T09:26:46;9.05;;;8.10;;
30048;SDS011;16879;50.852;15.602;2024-03-23T09:29:13;11.00;;;7.80;;
30048;SDS011;16879;50.852;15.602;2024-03-23T09:31:39;9.50;;;7.38;;
30048;SDS011;16879;50.852;15.602;2024-03-23T09:34:06;9.38;;;8.40;;
30048;SDS011;16879;50.852;15.602;2024-03-23T09:36:31;11.93;;;8.40;;
30048;SDS011;16879;50.852;15.602;2024-03-23T09:38:57;9.85;;;8.30;;
30048;SDS011;16879;50.852;15.602;2024-03-23T09:41:23;8.88;;;7.53;;
30048;SDS011;16879;50.852;15.602;2024-03-23T09:43:52;8.95;;;7.22;;
30048;SDS011;16879;50.852;15.602;2024-03-23T09:46:18;10.55;;;8.52;;
30048;SDS011;16879;50.852;15.602;2024-03-23T09:48:44;11.15;;;8.77;;
30048;SDS011;16879;50.852;15.602;2024-03-23T09:51:12;13.60;;;7.90;;
30048;SDS011;16879;50.852;15.602;2024-03-23T09:53:38;9.15;;;6.50;;
30048;SDS011;16879;50.852;15.602;2024-03-23T09:56:04;8.75;;;7.80;;
30048;SDS011;16879;50.852;15.602;2024-03-23T09:58:30;7.75;;;6.88;;
30048;SDS011;16879;50.852;15.602;2024-03-23T10:00:57;9.05;;;7.32;;
30048;SDS011;16879;50.852;15.602;2024-03-23T10:03:23;9.80;;;7.70;;
30048;SDS011;16879;50.852;15.602;2024-03-23T10:06:00;10.32;;;6.97;;
30048;SDS011;16879;50.852;15.602;2024-03-23T10:08:26;9.05;;;7.50;;
30048;SDS011;16879;50.852;15.602;2024-03-23T10:10:55;9.07;;;7.05;;
30048;SDS011;16879;50.852;15.602;2024-03-23T10:13:25;8.35;;;6.82;;
30048;SDS011;16879;50.852;15.602;2024-03-23T10:15:55;8.13;;;6.30;;
30048;SDS011;16879;50.852;15.602;2024-03-23T10:18:23;11.30;;;7.15;;
30048;SDS011;16879;50.852;15.602;2024-03-23T10:23:18;10.52;;;7.40;;
30048;SDS011;16879;50.852;15.602;2024-03-23T10:25:44;13.00;;;7.90;;
30048;SDS011;16879;50.852;15.602;2024-03-23T10:28:11;11.30;;;9.27;;
30048;SDS011;16879;50.852;15.602;2024-03-23T10:30:37;10.82;;;9.45;;
30048;SDS011;16879;50.852;15.602;2024-03-23T10:33:09;10.68;;;8.77;;
30048;SDS011;16879;50.852;15.602;2024-03-23T10:35:36;11.40;;;7.50;;
30048;SDS011;16879;50.852;15.602;2024-03-23T10:38:06;10.27;;;7.60;;
30048;SDS011;16879;50.852;15.602;2024-03-23T10:40:36;10.75;;;9.13;;
30048;SDS011;16879;50.852;15.602;2024-03-23T10:43:05;11.90;;;9.82;;
30048;SDS011;16879;50.852;15.602;2024-03-23T10:45:32;11.10;;;9.65;;
30048;SDS011;16879;50.852;15.602;2024-03-23T10:47:59;11.18;;;10.07;;
30048;SDS011;16879;50.852;15.602;2024-03-23T10:50:27;9.05;;;8.15;;
30048;SDS011;16879;50.852;15.602;2024-03-23T10:52:53;9.98;;;8.57;;
30048;SDS011;16879;50.852;15.602;2024-03-23T10:55:21;11.35;;;9.63;;
30048;SDS011;16879;50.852;15.602;2024-03-23T10:57:53;9.40;;;8.32;;
30048;SDS011;16879;50.852;15.602;2024-03-23T11:00:20;8.88;;;8.07;;
30048;SDS011;16879;50.852;15.602;2024-03-23T11:02:47;8.50;;;7.43;;
30048;SDS011;16879;50.852;15.602;2024-03-23T11:05:47;9.23;;;8.18;;
30048;SDS011;16879;50.852;15.602;2024-03-23T11:08:12;9.00;;;8.10;;
30048;SDS011;16879;50.852;15.602;2024-03-23T11:11:16;11.10;;;8.35;;
30048;SDS011;16879;50.852;15.602;2024-03-23T11:16:29;10.23;;;8.93;;
30048;SDS011;16879;50.852;15.602;2024-03-23T11:21:53;11.55;;;9.13;;
30048;SDS011;16879;50.852;15.602;2024-03-23T11:24:20;11.32;;;9.65;;
30048;SDS011;16879;50.852;15.602;2024-03-23T11:26:47;10.05;;;8.70;;
30048;SDS011;16879;50.852;15.602;2024-03-23T11:29:14;11.05;;;9.70;;
30048;SDS011;16879;50.852;15.602;2024-03-23T11:31:52;14.68;;;10.80;;
30048;SDS011;16879;50.852;15.602;2024-03-23T11:34:19;10.45;;;9.38;;
30048;SDS011;16879;50.852;15.602;2024-03-23T11:36:46;11.98;;;10.13;;
30048;SDS011;16879;50.852;15.602;2024-03-23T11:41:47;11.98;;;10.30;;
30048;SDS011;16879;50.852;15.602;2024-03-23T11:44:17;11.73;;;10.07;;
30048;SDS011;16879;50.852;15.602;2024-03-23T11:46:43;10.52;;;9.43;;
30048;SDS011;16879;50.852;15.602;2024-03-23T11:51:48;12.43;;;9.68;;
30048;SDS011;16879;50.852;15.602;2024-03-23T11:54:14;9.57;;;8.63;;
30048;SDS011;16879;50.852;15.602;2024-03-23T11:56:40;12.50;;;9.48;;
30048;SDS011;16879;50.852;15.602;2024-03-23T11:59:07;9.10;;;8.13;;
30048;SDS011;16879;50.852;15.602;2024-03-23T12:01:33;9.85;;;8.02;;
30048;SDS011;16879;50.852;15.602;2024-03-23T12:03:59;8.70;;;7.80;;
30048;SDS011;16879;50.852;15.602;2024-03-23T12:06:25;8.73;;;7.28;;
30048;SDS011;16879;50.852;15.602;2024-03-23T12:08:51;10.52;;;4.95;;
30048;SDS011;16879;50.852;15.602;2024-03-23T12:11:17;5.65;;;3.58;;
30048;SDS011;16879;50.852;15.602;2024-03-23T12:13:44;4.35;;;3.50;;
30048;SDS011;16879;50.852;15.602;2024-03-23T12:18:45;5.72;;;4.43;;
30048;SDS011;16879;50.852;15.602;2024-03-23T12:21:12;5.57;;;5.05;;
30048;SDS011;16879;50.852;15.602;2024-03-23T12:23:41;5.85;;;4.80;;
30048;SDS011;16879;50.852;15.602;2024-03-23T12:26:09;6.50;;;4.75;;
30048;SDS011;16879;50.852;15.602;2024-03-23T12:28:36;5.78;;;4.35;;
30048;SDS011;16879;50.852;15.602;2024-03-23T12:31:03;5.03;;;4.07;;
30048;SDS011;16879;50.852;15.602;2024-03-23T12:33:29;5.03;;;4.00;;
30048;SDS011;16879;50.852;15.602;2024-03-23T12:35:55;5.20;;;4.65;;
30048;SDS011;16879;50.852;15.602;2024-03-23T12:38:21;4.53;;;3.70;;
30048;SDS011;16879;50.852;15.602;2024-03-23T12:40:47;3.75;;;3.35;;
30048;SDS011;16879;50.852;15.602;2024-03-23T12:43:14;4.60;;;4.03;;
30048;SDS011;16879;50.852;15.602;2024-03-23T12:45:40;4.10;;;3.42;;
30048;SDS011;16879;50.852;15.602;2024-03-23T12:48:06;3.60;;;3.20;;
30048;SDS011;16879;50.852;15.602;2024-03-23T12:50:33;2.88;;;2.67;;
30048;SDS011;16879;50.852;15.602;2024-03-23T12:52:59;3.35;;;2.10;;
30048;SDS011;16879;50.852;15.602;2024-03-23T12:55:28;1.88;;;1.70;;
30048;SDS011;16879;50.852;15.602;2024-03-23T12:57:53;1.73;;;1.25;;
30048;SDS011;16879;50.852;15.602;2024-03-23T13:00:19;0.90;;;0.90;;
30048;SDS011;16879;50.852;15.602;2024-03-23T13:02:45;0.85;;;0.85;;
30048;SDS011;16879;50.852;15.602;2024-03-23T17:13:59;9.93;;;5.82;;
30048;SDS011;16879;50.852;15.602;2024-03-23T17:16:26;41.90;;;31.65;;
30048;SDS011;16879;50.852;15.602;2024-03-23T17:18:55;12.65;;;7.78;;
30048;SDS011;16879;50.852;15.602;2024-03-23T17:21:22;20.90;;;10.48;;
30048;SDS011;16879;50.852;15.602;2024-03-23T17:23:51;15.18;;;7.70;;
30048;SDS011;16879;50.852;15.602;2024-03-23T17:26:19;15.45;;;9.23;;
30048;SDS011;16879;50.852;15.602;2024-03-23T17:28:48;15.43;;;8.38;;
30048;SDS011;16879;50.852;15.602;2024-03-23T17:31:18;21.85;;;12.98;;
30048;SDS011;16879;50.852;15.602;2024-03-23T17:33:45;16.90;;;9.18;;
30048;SDS011;16879;50.852;15.602;2024-03-23T17:36:18;11.63;;;7.70;;
30048;SDS011;16879;50.852;15.602;2024-03-23T17:38:55;31.52;;;18.05;;
30048;SDS011;16879;50.852;15.602;2024-03-23T17:41:23;39.08;;;20.83;;
30048;SDS011;16879;50.852;15.602;2024-03-23T17:43:53;14.88;;;9.90;;
30048;SDS011;16879;50.852;15.602;2024-03-23T17:46:22;13.02;;;8.75;;
30048;SDS011;16879;50.852;15.602;2024-03-23T17:48:53;20.83;;;13.60;;
30048;SDS011;16879;50.852;15.602;2024-03-23T17:51:24;16.30;;;10.65;;
30048;SDS011;16879;50.852;15.602;2024-03-23T17:53:52;17.15;;;9.05;;
30048;SDS011;16879;50.852;15.602;2024-03-23T17:56:28;23.83;;;11.65;;
30048;SDS011;16879;50.852;15.602;2024-03-23T17:58:57;23.73;;;12.30;;
30048;SDS011;16879;50.852;15.602;2024-03-23T18:01:39;18.00;;;10.43;;
30048;SDS011;16879;50.852;15.602;2024-03-23T18:04:22;13.75;;;8.60;;
30048;SDS011;16879;50.852;15.602;2024-03-23T18:06:56;11.95;;;8.93;;
30048;SDS011;16879;50.852;15.602;2024-03-23T18:09:23;12.20;;;8.88;;
30048;SDS011;16879;50.852;15.602;2024-03-23T18:11:52;14.10;;;8.15;;
30048;SDS011;16879;50.852;15.602;2024-03-23T18:14:20;24.10;;;14.20;;
30048;SDS011;16879;50.852;15.602;2024-03-23T18:16:49;13.43;;;7.90;;
30048;SDS011;16879;50.852;15.602;2024-03-23T18:19:23;17.25;;;10.65;;
30048;SDS011;16879;50.852;15.602;2024-03-23T18:21:58;13.73;;;8.45;;
30048;SDS011;16879;50.852;15.602;2024-03-23T18:24:31;13.65;;;8.43;;
30048;SDS011;16879;50.852;15.602;2024-03-23T18:27:05;15.13;;;9.10;;
30048;SDS011;16879;50.852;15.602;2024-03-23T18:32:56;17.17;;;10.75;;
30048;SDS011;16879;50.852;15.602;2024-03-23T18:35:22;25.15;;;14.07;;
30048;SDS011;16879;50.852;15.602;2024-03-23T18:37:48;14.63;;;8.98;;
30048;SDS011;16879;50.852;15.602;2024-03-23T18:40:18;19.30;;;12.32;;
30048;SDS011;16879;50.852;15.602;2024-03-23T18:42:45;18.05;;;11.75;;
30048;SDS011;16879;50.852;15.602;2024-03-23T18:45:11;17.63;;;13.25;;
30048;SDS011;16879;50.852;15.602;2024-03-23T18:47:37;22.42;;;16.85;;
30048;SDS011;16879;50.852;15.602;2024-03-23T18:50:07;26.15;;;14.10;;
30048;SDS011;16879;50.852;15.602;2024-03-23T18:52:33;19.55;;;12.35;;
30048;SDS011;16879;50.852;15.602;2024-03-23T18:54:59;26.23;;;15.05;;
30048;SDS011;16879;50.852;15.602;2024-03-23T18:57:25;24.88;;;15.32;;
30048;SDS011;16879;50.852;15.602;2024-03-23T18:59:52;20.35;;;12.07;;
30048;SDS011;16879;50.852;15.602;2024-03-23T19:02:18;16.05;;;11.30;;
30048;SDS011;16879;50.852;15.602;2024-03-23T19:04:44;13.02;;;8.13;;
30048;SDS011;16879;50.852;15.602;2024-03-23T19:07:11;13.77;;;9.93;;
30048;SDS011;16879;50.852;15.602;2024-03-23T19:09:37;16.33;;;10.95;;
30048;SDS011;16879;50.852;15.602;2024-03-23T19:12:04;14.27;;;9.45;;
30048;SDS011;16879;50.852;15.602;2024-03-23T19:14:30;18.70;;;11.00;;
30048;SDS011;16879;50.852;15.602;2024-03-23T19:16:57;13.10;;;10.20;;
30048;SDS011;16879;50.852;15.602;2024-03-23T19:19:24;23.23;;;15.40;;
30048;SDS011;16879;50.852;15.602;2024-03-23T19:21:52;16.67;;;10.25;;
30048;SDS011;16879;50.852;15.602;2024-03-23T19:24:18;15.95;;;9.05;;
30048;SDS011;16879;50.852;15.602;2024-03-23T19:26:45;19.92;;;11.75;;
30048;SDS011;16879;50.852;15.602;2024-03-23T19:29:11;17.15;;;9.55;;
30048;SDS011;16879;50.852;15.602;2024-03-23T19:31:37;16.02;;;9.35;;
30048;SDS011;16879;50.852;15.602;2024-03-23T19:34:03;10.25;;;7.00;;
30048;SDS011;16879;50.852;15.602;2024-03-23T19:36:29;16.38;;;10.15;;
30048;SDS011;16879;50.852;15.602;2024-03-23T19:38:55;16.73;;;7.93;;
30048;SDS011;16879;50.852;15.602;2024-03-23T19:41:22;10.80;;;6.85;;
30048;SDS011;16879;50.852;15.602;2024-03-23T19:43:50;11.70;;;6.80;;
30048;SDS011;16879;50.852;15.602;2024-03-23T19:46:15;17.20;;;10.63;;